Time;durP1;ratioP1;P1;durP2;ratioP2;P2;SDS_P1;SDS_P2;PMS_P1;PMS_P2;Temp;Humidity;BMP_temperature;BMP_pressure;BME280_temperature;BME280_humidity;BME280_pressure;Samples;Min_cycle;Max_cycle;Signal;HPM_P1;HPM_P2
2023/09/25 00:01:57;;;;;;;3.27;1.83;;;;;9.50;94800.00;;;;7392876;19;20141;-76
2023/09/25 00:04:31;;;;;;;3.37;2.03;;;;;9.30;94798.00;;;;7393211;19;20152;-75
2023/09/25 00:07:05;;;;;;;4.50;1.98;;;;;9.30;94797.00;;;;7389840;19;20206;-75
2023/09/25 00:09:40;;;;;;;3.50;1.87;;;;;9.40;94786.00;;;;7390710;19;20141;-73
2023/09/25 00:12:17;;;;;;;3.87;1.80;;;;;9.30;94790.00;;;;7392907;19;20141;-75
2023/09/25 00:14:51;;;;;;;3.70;2.33;;;;;9.50;94785.00;;;;7391503;19;20257;-75
2023/09/25 00:17:18;;;;;;;3.67;1.70;;;;;9.40;94792.00;;;;7392737;19;20160;-75
2023/09/25 00:19:53;;;;;;;4.20;2.03;;;;;9.20;94785.00;;;;7390057;19;20500;-75
2023/09/25 00:22:20;;;;;;;4.20;2.20;;;;;9.20;94800.00;;;;7392733;19;20132;-75
2023/09/25 00:24:56;;;;;;;4.25;2.50;;;;;9.10;94791.00;;;;7389400;19;20640;-75
2023/09/25 00:27:33;;;;;;;2.63;2.00;;;;;9.20;94794.00;;;;7391395;19;20132;-76
2023/09/25 00:30:05;;;;;;;5.63;2.03;;;;;9.20;94787.00;;;;7392792;19;20149;-75
2023/09/25 00:32:40;;;;;;;4.17;2.20;;;;;9.30;94788.00;;;;7399493;19;20169;-75
2023/09/25 00:35:15;;;;;;;5.43;2.40;;;;;9.10;94775.00;;;;7398925;19;20453;-74
2023/09/25 00:37:49;;;;;;;2.83;2.10;;;;;8.90;94778.00;;;;7397837;19;20762;-75
2023/09/25 00:40:24;;;;;;;5.97;2.10;;;;;8.90;94772.00;;;;7399177;19;20140;-76
2023/09/25 00:42:58;;;;;;;4.43;2.47;;;;;9.10;94778.00;;;;7400379;19;20135;-74
2023/09/25 00:45:37;;;;;;;5.60;2.10;;;;;9.00;94770.00;;;;7398491;19;20127;-76
2023/09/25 00:48:26;;;;;;;5.20;2.17;;;;;8.90;94771.00;;;;7399161;19;20428;-75
2023/09/25 00:51:01;;;;;;;3.23;1.90;;;;;8.70;94766.00;;;;7398954;19;21936;-75
2023/09/25 00:53:37;;;;;;;4.13;1.77;;;;;8.80;94769.00;;;;7398440;19;20592;-75
2023/09/25 00:56:11;;;;;;;3.37;2.07;;;;;8.60;94762.00;;;;7399062;19;20136;-75
2023/09/25 00:58:39;;;;;;;6.33;1.87;;;;;8.60;94769.00;;;;7395768;19;20149;-76
2023/09/25 01:01:11;;;;;;;2.97;1.53;;;;;8.60;94770.00;;;;7398805;19;20174;-75
2023/09/25 01:03:51;;;;;;;3.07;1.87;;;;;8.70;94770.00;;;;7382701;19;20230;-78
2023/09/25 01:06:26;;;;;;;2.77;1.93;;;;;8.90;94766.00;;;;7397520;19;20133;-78
2023/09/25 01:09:01;;;;;;;2.83;1.77;;;;;8.90;94772.00;;;;7398838;19;20148;-78
2023/09/25 01:11:29;;;;;;;5.73;2.07;;;;;8.80;94774.00;;;;7400281;19;20133;-78
2023/09/25 01:14:04;;;;;;;3.63;1.60;;;;;8.90;94770.00;;;;7399575;19;20133;-78
2023/09/25 01:16:32;;;;;;;5.63;1.90;;;;;8.90;94770.00;;;;7397848;19;20143;-78
2023/09/25 01:19:07;;;;;;;3.83;1.83;;;;;8.70;94779.00;;;;7395004;19;20208;-78
2023/09/25 01:21:34;;;;;;;2.17;1.67;;;;;8.70;94777.00;;;;7398465;19;20631;-78
2023/09/25 01:24:02;;;;;;;3.07;1.93;;;;;8.70;94776.00;;;;7399313;19;20129;-79
2023/09/25 01:26:37;;;;;;;3.20;1.83;;;;;8.80;94770.00;;;;7397443;19;20144;-78
2023/09/25 01:29:05;;;;;;;2.90;1.90;;;;;8.90;94765.00;;;;7398044;19;20133;-78
2023/09/25 01:31:39;;;;;;;2.20;1.63;;;;;9.10;94773.00;;;;7398716;19;20150;-78
2023/09/25 01:34:12;;;;;;;4.67;2.03;;;;;9.00;94766.00;;;;7397389;19;20217;-78
2023/09/25 01:36:46;;;;;;;5.70;2.10;;;;;8.90;94766.00;;;;7395357;19;20532;-78
2023/09/25 01:39:14;;;;;;;4.50;2.03;;;;;9.00;94758.00;;;;7396598;19;20124;-77
2023/09/25 01:41:49;;;;;;;6.23;2.00;;;;;8.90;94759.00;;;;7397875;19;20199;-79
2023/09/25 01:44:25;;;;;;;4.63;2.27;;;;;9.00;94761.00;;;;7394744;19;20144;-78
2023/09/25 01:46:53;;;;;;;5.30;2.20;;;;;9.00;94758.00;;;;7398340;19;20140;-78
2023/09/25 01:49:30;;;;;;;4.10;1.70;;;;;9.20;94754.00;;;;7397731;19;20132;-78
2023/09/25 01:51:58;;;;;;;2.50;1.73;;;;;9.10;94747.00;;;;7393414;19;20149;-78
2023/09/25 01:54:32;;;;;;;4.30;1.90;;;;;9.10;94745.00;;;;7398901;19;20500;-77
2023/09/25 01:57:00;;;;;;;2.80;1.80;;;;;9.00;94738.00;;;;7398698;19;20136;-78
2023/09/25 01:59:34;;;;;;;3.27;1.90;;;;;9.00;94743.00;;;;7394953;19;20125;-78
2023/09/25 02:02:08;;;;;;;4.67;1.97;;;;;9.20;94742.00;;;;7396591;19;20165;-78
2023/09/25 02:04:48;;;;;;;5.67;1.87;;;;;9.20;94736.00;;;;7396582;19;20499;-78
2023/09/25 02:07:18;;;;;;;3.93;1.83;;;;;9.00;94738.00;;;;7396724;19;20285;-78
2023/09/25 02:09:53;;;;;;;2.63;1.60;;;;;8.90;94741.00;;;;7398525;19;20152;-78
2023/09/25 02:12:21;;;;;;;2.40;1.67;;;;;8.90;94737.00;;;;7398268;19;20206;-78
2023/09/25 02:14:51;;;;;;;3.57;1.87;;;;;8.90;94745.00;;;;7396969;19;20172;-78
2023/09/25 02:17:29;;;;;;;2.90;2.10;;;;;8.90;94736.00;;;;7397043;19;20143;-77
2023/09/25 02:20:10;;;;;;;4.00;1.83;;;;;8.90;94733.00;;;;7394185;19;20668;-78
2023/09/25 02:22:47;;;;;;;3.53;1.80;;;;;9.00;94723.00;;;;7396030;19;20148;-78
2023/09/25 02:25:22;;;;;;;2.80;1.90;;;;;8.90;94730.00;;;;7397122;19;20124;-79
2023/09/25 02:27:50;;;;;;;3.00;1.80;;;;;8.90;94730.00;;;;7395229;19;20145;-78
2023/09/25 02:30:25;;;;;;;3.23;1.90;;;;;8.90;94730.00;;;;7396207;19;20587;-78
2023/09/25 02:32:52;;;;;;;3.23;1.80;;;;;8.80;94727.00;;;;7396453;19;20145;-78
2023/09/25 02:35:27;;;;;;;5.27;1.80;;;;;8.90;94726.00;;;;7395998;19;20148;-78
2023/09/25 02:37:55;;;;;;;3.03;2.00;;;;;9.00;94716.00;;;;7395591;19;20599;-78
2023/09/25 02:40:29;;;;;;;3.47;1.87;;;;;8.90;94720.00;;;;7396081;19;20604;-78
2023/09/25 02:43:03;;;;;;;5.90;2.27;;;;;8.80;94718.00;;;;7395869;19;20145;-78
2023/09/25 02:45:37;;;;;;;4.53;1.80;;;;;8.90;94715.00;;;;7396620;19;20137;-78
2023/09/25 02:48:11;;;;;;;3.40;1.97;;;;;8.70;94722.00;;;;7395871;19;20152;-78
2023/09/25 02:50:39;;;;;;;3.17;1.60;;;;;8.70;94720.00;;;;7395161;19;20186;-78
2023/09/25 02:53:13;;;;;;;2.80;1.67;;;;;8.60;94713.00;;;;7395870;19;20133;-78
2023/09/25 02:55:41;;;;;;;3.10;1.70;;;;;8.80;94716.00;;;;7394758;19;20652;-78
2023/09/25 02:58:15;;;;;;;2.27;1.70;;;;;9.00;94718.00;;;;7394098;19;20151;-79
2023/09/25 03:00:43;;;;;;;1.87;1.60;;;;;9.00;94717.00;;;;7392701;19;20132;-77
2023/09/25 03:03:23;;;;;;;3.67;1.87;;;;;9.00;94705.00;;;;7394305;19;20640;-78
2023/09/25 03:06:04;;;;;;;3.53;1.90;;;;;9.00;94709.00;;;;7395138;19;20175;-77
2023/09/25 03:08:39;;;;;;;4.93;1.67;;;;;9.10;94708.00;;;;7397713;19;20137;-78
2023/09/25 03:11:14;;;;;;;4.30;1.77;;;;;9.20;94710.00;;;;7392501;19;20132;-78
2023/09/25 03:13:50;;;;;;;3.17;1.80;;;;;9.10;94703.00;;;;7394323;19;20568;-78
2023/09/25 03:16:24;;;;;;;2.70;1.70;;;;;9.00;94697.00;;;;7396605;19;20141;-77
2023/09/25 03:18:58;;;;;;;5.97;1.70;;;;;9.00;94703.00;;;;7395303;19;20145;-78
2023/09/25 03:21:26;;;;;;;3.27;1.90;;;;;9.10;94706.00;;;;7393407;19;20477;-77
2023/09/25 03:24:00;;;;;;;4.90;1.80;;;;;9.00;94714.00;;;;7395375;19;20623;-77
2023/09/25 03:26:28;;;;;;;4.27;1.97;;;;;9.20;94711.00;;;;7394339;19;20496;-77
2023/09/25 03:29:07;;;;;;;3.90;1.80;;;;;9.40;94712.00;;;;7394697;19;20201;-77
2023/09/25 03:31:42;;;;;;;4.50;2.10;;;;;9.40;94717.00;;;;7393362;19;21254;-78
2023/09/25 03:34:16;;;;;;;4.00;1.67;;;;;9.30;94716.00;;;;7395530;19;20160;-78
2023/09/25 03:36:44;;;;;;;2.10;1.77;;;;;9.30;94718.00;;;;7395632;19;20141;-78
2023/09/25 03:39:14;;;;;;;3.43;1.60;;;;;9.20;94709.00;;;;7392716;19;20197;-78
2023/09/25 03:41:48;;;;;;;2.50;1.50;;;;;9.20;94717.00;;;;7392595;19;20145;-79
2023/09/25 03:44:16;;;;;;;2.10;1.83;;;;;9.30;94706.00;;;;7397521;19;20204;-80
2023/09/25 03:46:44;;;;;;;2.70;1.80;;;;;9.10;94709.00;;;;7392223;19;20548;-78
2023/09/25 03:49:18;;;;;;;2.33;1.80;;;;;9.10;94713.00;;;;7394572;19;20866;-78
2023/09/25 03:51:52;;;;;;;2.07;1.63;;;;;9.20;94711.00;;;;7396238;19;20484;-78
2023/09/25 03:54:26;;;;;;;3.67;1.77;;;;;9.40;94715.00;;;;7395130;19;20525;-79
2023/09/25 03:57:01;;;;;;;4.20;1.90;;;;;9.30;94712.00;;;;7394691;19;20137;-78
2023/09/25 03:59:35;;;;;;;4.90;1.80;;;;;9.20;94711.00;;;;7393998;19;20125;-78
2023/09/25 04:02:02;;;;;;;2.67;1.60;;;;;9.20;94712.00;;;;7391059;19;20208;-78
2023/09/25 04:04:43;;;;;;;3.07;2.00;;;;;9.20;94714.00;;;;7397468;19;20124;-77
2023/09/25 04:07:18;;;;;;;4.30;2.00;;;;;9.20;94718.00;;;;7403187;19;20544;-79
2023/09/25 04:09:49;;;;;;;2.00;1.50;;;;;9.40;94711.00;;;;7399824;19;20133;-79
2023/09/25 04:12:24;;;;;;;2.17;1.63;;;;;9.30;94715.00;;;;7398920;19;20212;-77
2023/09/25 04:14:53;;;;;;;2.87;1.90;;;;;9.40;94712.00;;;;7403042;19;20132;-77
2023/09/25 04:17:35;;;;;;;3.80;2.07;;;;;9.40;94713.00;;;;7400684;19;20231;-78
2023/09/25 04:20:08;;;;;;;3.00;1.80;;;;;9.20;94710.00;;;;7398942;19;20136;-78
2023/09/25 04:22:46;;;;;;;3.27;2.17;;;;;9.10;94715.00;;;;7400988;19;20133;-79
2023/09/25 04:25:21;;;;;;;4.97;2.10;;;;;9.20;94722.00;;;;7399955;19;20148;-78
2023/09/25 04:27:59;;;;;;;2.93;2.20;;;;;9.20;94718.00;;;;7400139;19;20151;-79
2023/09/25 04:30:28;;;;;;;2.20;1.50;;;;;9.30;94720.00;;;;7402359;19;20145;-78
2023/09/25 04:33:02;;;;;;;2.83;1.77;;;;;9.30;94715.00;;;;7399807;19;20754;-79
2023/09/25 04:35:29;;;;;;;3.27;1.83;;;;;9.20;94723.00;;;;7400723;19;20152;-79
2023/09/25 04:38:04;;;;;;;3.30;1.80;;;;;9.20;94723.00;;;;7399897;19;20135;-75
2023/09/25 04:40:38;;;;;;;7.63;2.13;;;;;9.20;94720.00;;;;7397786;19;20614;-75
2023/09/25 04:43:12;;;;;;;2.87;1.60;;;;;9.00;94726.00;;;;7397876;19;20144;-75
2023/09/25 04:45:51;;;;;;;4.17;1.90;;;;;9.00;94726.00;;;;7398908;19;20152;-75
2023/09/25 04:48:29;;;;;;;4.63;1.90;;;;;9.00;94724.00;;;;7400886;19;20144;-75
2023/09/25 04:50:57;;;;;;;2.13;1.90;;;;;8.90;94720.00;;;;7400630;19;20145;-76
2023/09/25 04:53:25;;;;;;;3.30;2.13;;;;;8.90;94734.00;;;;7397285;19;20505;-74
2023/09/25 04:56:00;;;;;;;4.00;1.70;;;;;9.00;94731.00;;;;7399119;19;20132;-75
2023/09/25 04:58:35;;;;;;;3.73;1.90;;;;;8.90;94729.00;;;;7398391;19;20132;-75
2023/09/25 05:01:09;;;;;;;4.33;2.03;;;;;9.00;94729.00;;;;7394648;19;20148;-75
2023/09/25 05:03:40;;;;;;;4.47;1.80;;;;;8.90;94721.00;;;;7396372;19;20175;-75
2023/09/25 05:06:21;;;;;;;4.27;2.00;;;;;8.80;94716.00;;;;7400612;19;20156;-75
2023/09/25 05:08:50;;;;;;;2.60;1.90;;;;;8.90;94718.00;;;;7400340;19;20214;-75
2023/09/25 05:11:24;;;;;;;2.33;2.03;;;;;9.10;94721.00;;;;7396554;19;20149;-76
2023/09/25 05:13:52;;;;;;;4.13;2.00;;;;;9.00;94732.00;;;;7399931;19;20147;-75
2023/09/25 05:16:21;;;;;;;4.30;1.77;;;;;9.00;94721.00;;;;7394817;19;20137;-74
2023/09/25 05:18:57;;;;;;;2.70;1.97;;;;;9.00;94725.00;;;;7397606;19;20168;-75
2023/09/25 05:21:32;;;;;;;3.90;2.20;;;;;9.00;94728.00;;;;7397079;19;20612;-75
2023/09/25 05:24:07;;;;;;;2.67;1.83;;;;;9.10;94719.00;;;;7396985;19;20148;-76
2023/09/25 05:26:41;;;;;;;4.50;2.10;;;;;9.00;94727.00;;;;7398441;19;20611;-75
2023/09/25 05:29:08;;;;;;;2.87;1.73;;;;;8.90;94719.00;;;;7396946;19;20500;-76
2023/09/25 05:31:43;;;;;;;4.53;1.80;;;;;9.00;94720.00;;;;7395515;19;20155;-75
2023/09/25 05:34:11;;;;;;;7.83;2.13;;;;;9.10;94712.00;;;;7397420;19;20144;-74
2023/09/25 05:36:45;;;;;;;3.10;2.00;;;;;9.20;94720.00;;;;7399425;19;20153;-75
2023/09/25 05:39:15;;;;;;;4.50;1.70;;;;;9.30;94714.00;;;;7398979;19;20144;-76
2023/09/25 05:41:49;;;;;;;2.13;1.60;;;;;9.30;94714.00;;;;7394452;19;20643;-75
2023/09/25 05:44:16;;;;;;;4.53;1.93;;;;;9.40;94707.00;;;;7397045;19;20161;-74
2023/09/25 05:46:51;;;;;;;3.27;1.90;;;;;9.50;94711.00;;;;7395163;19;20152;-76
2023/09/25 05:49:19;;;;;;;3.28;2.03;;;;;9.60;94714.00;;;;7400902;19;20161;-77
2023/09/25 05:51:54;;;;;;;3.40;1.80;;;;;9.70;94707.00;;;;7399494;19;20129;-78
2023/09/25 05:54:22;;;;;;;4.30;2.10;;;;;9.70;94705.00;;;;7401836;19;20608;-79
2023/09/25 05:56:58;;;;;;;2.87;1.60;;;;;9.80;94704.00;;;;7401255;19;20460;-79
2023/09/25 05:59:35;;;;;;;9.83;1.90;;;;;10.00;94704.00;;;;7401113;19;20575;-79
2023/09/25 06:02:03;;;;;;;2.88;2.00;;;;;10.00;94708.00;;;;7396307;19;20172;-82
2023/09/25 06:04:36;;;;;;;2.90;1.50;;;;;10.10;94714.00;;;;7392815;19;20168;-80
2023/09/25 06:07:11;;;;;;;5.77;2.43;;;;;10.30;94707.00;;;;7397608;19;20464;-79
2023/09/25 06:09:48;;;;;;;3.17;1.83;;;;;10.30;94709.00;;;;7395609;19;20176;-81
2023/09/25 06:12:21;;;;;;;3.55;1.80;;;;;10.40;94708.00;;;;7395198;19;20123;-81
2023/09/25 06:14:57;;;;;;;2.65;1.70;;;;;10.50;94716.00;;;;7393870;19;20740;-78
2023/09/25 06:17:28;;;;;;;2.90;1.60;;;;;10.60;94710.00;;;;7397681;19;20129;-81
2023/09/25 06:20:14;;;;;;;2.30;1.75;;;;;10.70;94721.00;;;;7398604;19;20161;-83
2023/09/25 06:22:46;;;;;;;3.92;2.00;;;;;10.80;94722.00;;;;7397388;19;20591;-80
2023/09/25 06:25:21;;;;;;;2.75;1.98;;;;;11.00;94722.00;;;;7395876;19;20150;-81
2023/09/25 06:27:48;;;;;;;2.28;1.52;;;;;11.00;94715.00;;;;7393977;19;20207;-80
2023/09/25 06:30:18;;;;;;;3.90;1.98;;;;;11.10;94725.00;;;;7395061;19;20157;-79
2023/09/25 06:32:54;;;;;;;3.03;1.95;;;;;11.30;94725.00;;;;7396410;19;20137;-79
2023/09/25 06:35:29;;;;;;;3.55;1.98;;;;;11.50;94724.00;;;;7397574;19;20133;-79
2023/09/25 06:38:00;;;;;;;2.42;1.50;;;;;11.60;94725.00;;;;7396084;19;20152;-78
2023/09/25 06:40:35;;;;;;;2.58;1.60;;;;;11.80;94719.00;;;;7397503;19;20175;-80
2023/09/25 06:43:10;;;;;;;3.28;1.60;;;;;11.90;94726.00;;;;7397568;19;20131;-79
2023/09/25 06:45:45;;;;;;;3.95;1.70;;;;;12.10;94721.00;;;;7394861;19;20152;-78
2023/09/25 06:48:19;;;;;;;3.92;1.80;;;;;12.20;94725.00;;;;7398566;19;20132;-79
2023/09/25 06:50:53;;;;;;;2.85;1.85;;;;;12.40;94725.00;;;;7398032;19;20672;-80
2023/09/25 06:53:27;;;;;;;2.28;1.55;;;;;12.40;94714.00;;;;7398133;19;20165;-77
2023/09/25 06:56:01;;;;;;;4.45;1.83;;;;;12.50;94720.00;;;;7397976;19;20144;-80
2023/09/25 06:58:35;;;;;;;5.82;1.58;;;;;12.50;94719.00;;;;7394247;19;20124;-79
2023/09/25 07:01:09;;;;;;;2.70;1.88;;;;;12.70;94718.00;;;;7394813;19;20176;-79
2023/09/25 07:03:52;;;;;;;2.78;1.83;;;;;12.70;94725.00;;;;7393648;19;20187;-80
2023/09/25 07:06:30;;;;;;;2.83;1.65;;;;;12.90;94719.00;;;;7394095;19;20148;-79
2023/09/25 07:09:08;;;;;;;2.28;1.60;;;;;13.00;94719.00;;;;7393419;19;20215;-81
2023/09/25 07:11:36;;;;;;;4.35;1.83;;;;;13.20;94714.00;;;;7397463;19;20133;-79
2023/09/25 07:14:12;;;;;;;4.13;1.70;;;;;13.40;94715.00;;;;7393919;19;20148;-78
2023/09/25 07:16:46;;;;;;;2.55;2.05;;;;;13.50;94714.00;;;;7396154;19;20128;-79
2023/09/25 07:19:20;;;;;;;2.47;1.60;;;;;13.60;94725.00;;;;7395104;19;20133;-80
2023/09/25 07:21:55;;;;;;;2.38;2.00;;;;;13.80;94738.00;;;;7392076;19;20135;-80
2023/09/25 07:24:23;;;;;;;4.82;2.17;;;;;14.00;94732.00;;;;7394634;19;20152;-79
2023/09/25 07:26:57;;;;;;;5.35;1.90;;;;;14.30;94735.00;;;;7396042;19;20667;-79
2023/09/25 07:29:25;;;;;;;2.92;1.85;;;;;14.40;94727.00;;;;7397595;19;20196;-78
2023/09/25 07:32:09;;;;;;;2.75;1.77;;;;;14.20;94734.00;;;;7396877;19;20141;-79
2023/09/25 07:34:37;;;;;;;4.63;1.92;;;;;14.20;94734.00;;;;7390834;19;20572;-79
2023/09/25 07:37:12;;;;;;;1.98;1.50;;;;;14.40;94735.00;;;;7389447;19;20144;-77
2023/09/25 07:39:40;;;;;;;2.17;1.73;;;;;14.50;94724.00;;;;7393677;19;20140;-81
2023/09/25 07:42:15;;;;;;;2.72;1.88;;;;;14.70;94734.00;;;;7398164;19;20158;-80
2023/09/25 07:44:49;;;;;;;2.17;1.77;;;;;14.70;94726.00;;;;7400557;19;20136;-78
2023/09/25 07:47:23;;;;;;;3.17;1.88;;;;;14.70;94741.00;;;;7400407;19;20140;-77
2023/09/25 07:49:51;;;;;;;2.25;1.88;;;;;14.70;94739.00;;;;7401189;19;20608;-80
2023/09/25 07:52:20;;;;;;;4.82;1.80;;;;;14.90;94747.00;;;;7399782;19;20123;-78
2023/09/25 07:54:57;;;;;;;2.60;1.70;;;;;15.10;94747.00;;;;7398238;19;20152;-79
2023/09/25 07:57:24;;;;;;;3.42;1.70;;;;;15.40;94750.00;;;;7397457;19;20607;-80
2023/09/25 07:59:58;;;;;;;1.98;1.35;;;;;15.60;94746.00;;;;7401830;19;20161;-78
2023/09/25 08:02:26;;;;;;;4.63;1.70;;;;;15.60;94743.00;;;;7401653;19;20156;-79
2023/09/25 08:05:08;;;;;;;2.72;1.33;;;;;15.70;94762.00;;;;7400651;19;20310;-80
2023/09/25 08:07:44;;;;;;;2.95;1.90;;;;;15.90;94754.00;;;;7400915;19;20670;-79
2023/09/25 08:10:22;;;;;;;3.42;1.52;;;;;15.80;94759.00;;;;7402712;19;20152;-80
2023/09/25 08:12:50;;;;;;;3.38;1.42;;;;;15.90;94764.00;;;;7401583;19;20145;-80
2023/09/25 08:15:27;;;;;;;4.93;1.73;;;;;15.70;94775.00;;;;7401356;19;20152;-79
2023/09/25 08:18:01;;;;;;;3.70;1.83;;;;;15.90;94774.00;;;;7402958;19;20124;-80
2023/09/25 08:20:29;;;;;;;2.25;1.80;;;;;16.40;94768.00;;;;7401649;19;20151;-80
2023/09/25 08:23:03;;;;;;;1.92;1.67;;;;;16.30;94780.00;;;;7401312;19;20500;-81
2023/09/25 08:25:39;;;;;;;3.20;1.67;;;;;16.30;94777.00;;;;7401547;19;20125;-80
2023/09/25 08:28:14;;;;;;;3.10;1.70;;;;;16.40;94787.00;;;;7402763;19;20950;-80
2023/09/25 08:30:42;;;;;;;3.00;1.80;;;;;16.50;94774.00;;;;7401832;19;20125;-80
2023/09/25 08:33:16;;;;;;;3.60;1.48;;;;;16.80;94780.00;;;;7402161;19;20156;-80
2023/09/25 08:35:44;;;;;;;2.15;1.35;;;;;16.50;94771.00;;;;7398713;19;20136;-79
2023/09/25 08:38:18;;;;;;;4.00;1.98;;;;;16.90;94774.00;;;;7400383;19;20504;-78
2023/09/25 08:40:49;;;;;;;2.03;1.50;;;;;16.80;94767.00;;;;7401728;19;20124;-80
2023/09/25 08:43:26;;;;;;;1.90;1.50;;;;;17.00;94771.00;;;;7399021;19;20151;-79
2023/09/25 08:45:55;;;;;;;2.85;1.60;;;;;16.80;94779.00;;;;7404382;19;20576;-81
2023/09/25 08:48:26;;;;;;;2.03;1.40;;;;;16.70;94764.00;;;;7402802;19;20200;-82
2023/09/25 08:51:01;;;;;;;2.60;1.60;;;;;16.80;94769.00;;;;7402939;19;20127;-79
2023/09/25 08:53:37;;;;;;;3.47;2.50;;;;;17.00;94763.00;;;;7403375;19;20579;-83
2023/09/25 08:56:15;;;;;;;1.88;1.67;;;;;17.10;94769.00;;;;7400933;19;20481;-81
2023/09/25 08:58:55;;;;;;;1.73;1.55;;;;;16.90;94766.00;;;;7398403;19;20127;-79
2023/09/25 09:01:30;;;;;;;3.03;1.52;;;;;16.90;94770.00;;;;7402445;19;20128;-79
2023/09/25 09:04:08;;;;;;;2.67;1.90;;;;;17.00;94776.00;;;;7400221;19;20141;-80
2023/09/25 09:06:45;;;;;;;2.38;1.63;;;;;17.50;94774.00;;;;7400595;19;20132;-82
2023/09/25 09:09:13;;;;;;;2.40;1.50;;;;;17.80;94780.00;;;;7399777;19;20152;-80
2023/09/25 09:11:51;;;;;;;4.68;1.77;;;;;17.70;94779.00;;;;7402441;19;20120;-81
2023/09/25 09:14:33;;;;;;;2.60;1.52;;;;;17.80;94777.00;;;;7401201;19;20129;-79
2023/09/25 09:17:10;;;;;;;1.90;1.35;;;;;18.10;94787.00;;;;7401632;19;20603;-80
2023/09/25 09:19:44;;;;;;;2.97;1.80;;;;;17.90;94784.00;;;;7397583;19;20254;-78
2023/09/25 09:22:19;;;;;;;4.30;1.70;;;;;17.60;94787.00;;;;7395068;19;20160;-79
2023/09/25 09:24:48;;;;;;;2.17;1.70;;;;;17.90;94790.00;;;;7399381;19;20576;-79
2023/09/25 09:27:26;;;;;;;2.63;1.65;;;;;18.20;94784.00;;;;7400269;19;20225;-79
2023/09/25 09:30:02;;;;;;;1.63;1.52;;;;;18.20;94788.00;;;;7396048;19;20596;-78
2023/09/25 09:32:39;;;;;;;3.42;1.50;;;;;18.30;94782.00;;;;7396392;19;20169;-78
2023/09/25 09:35:07;;;;;;;2.67;1.63;;;;;18.80;94782.00;;;;7397625;19;20204;-79
2023/09/25 09:37:42;;;;;;;2.35;1.80;;;;;18.70;94786.00;;;;7398764;19;20177;-80
2023/09/25 09:40:11;;;;;;;2.60;1.60;;;;;18.70;94784.00;;;;7398185;19;20623;-79
2023/09/25 09:42:47;;;;;;;3.88;1.90;;;;;18.80;94778.00;;;;7391175;19;20128;-79
2023/09/25 09:45:21;;;;;;;2.58;1.67;;;;;18.80;94780.00;;;;7393891;19;20609;-79
2023/09/25 09:47:57;;;;;;;2.50;1.50;;;;;18.40;94777.00;;;;7391961;19;20198;-78
2023/09/25 09:50:33;;;;;;;4.22;2.10;;;;;18.40;94775.00;;;;7391097;19;20632;-79
2023/09/25 09:53:07;;;;;;;3.75;1.73;;;;;18.80;94775.00;;;;7392490;19;20156;-78
2023/09/25 09:55:43;;;;;;;2.70;1.85;;;;;18.90;94776.00;;;;7388374;19;20622;-79
2023/09/25 09:58:13;;;;;;;2.15;1.80;;;;;19.40;94772.00;;;;7392919;19;20178;-79
2023/09/25 10:00:49;;;;;;;2.20;1.83;;;;;19.80;94780.00;;;;7393564;19;20144;-79
2023/09/25 10:03:31;;;;;;;3.30;1.85;;;;;19.80;94772.00;;;;7389087;19;20223;-79
2023/09/25 10:06:01;;;;;;;3.15;1.60;;;;;19.90;94773.00;;;;7394175;19;20132;-79
2023/09/25 10:08:37;;;;;;;1.80;1.40;;;;;20.00;94778.00;;;;7394538;19;20981;-78
2023/09/25 10:11:23;;;;;;;1.60;1.40;;;;;19.50;94777.00;;;;7392853;19;20157;-78
2023/09/25 10:14:03;;;;;;;1.95;1.60;;;;;20.10;94765.00;;;;7392951;19;20125;-80
2023/09/25 10:16:58;;;;;;;3.63;1.90;;;;;20.30;94774.00;;;;7390971;19;20137;-76
2023/09/25 10:19:56;;;;;;;1.95;1.58;;;;;20.40;94771.00;;;;7393214;19;20192;-77
2023/09/25 10:22:30;;;;;;;4.00;1.40;;;;;20.40;94767.00;;;;7392346;19;20137;-75
2023/09/25 10:25:09;;;;;;;1.92;1.60;;;;;19.50;94766.00;;;;7394364;19;20129;-77
2023/09/25 10:27:45;;;;;;;2.60;1.80;;;;;19.80;94762.00;;;;7388778;19;21029;-78
2023/09/25 10:30:16;;;;;;;1.90;1.52;;;;;20.60;94760.00;;;;7390079;19;20822;-77
2023/09/25 10:32:52;;;;;;;3.25;1.52;;;;;20.70;94761.00;;;;7391089;19;20347;-78
2023/09/25 10:35:40;;;;;;;2.75;1.90;;;;;20.50;94768.00;;;;7388817;19;20157;-76
2023/09/25 10:38:26;;;;;;;1.80;1.50;;;;;20.50;94772.00;;;;7390169;19;20129;-76
2023/09/25 10:41:06;;;;;;;2.53;1.55;;;;;20.20;94761.00;;;;7391465;19;20881;-77
2023/09/25 10:43:41;;;;;;;2.50;1.50;;;;;20.40;94764.00;;;;7385111;19;20176;-77
2023/09/25 10:46:26;;;;;;;1.80;1.50;;;;;20.30;94755.00;;;;7389336;19;20148;-78
2023/09/25 10:48:55;;;;;;;4.45;1.73;;;;;20.00;94754.00;;;;7387570;19;20460;-78
2023/09/25 10:51:29;;;;;;;5.38;2.15;;;;;20.40;94756.00;;;;7385780;19;20163;-77
2023/09/25 10:53:57;;;;;;;4.13;1.50;;;;;21.10;94766.00;;;;7389769;19;20176;-79
2023/09/25 10:56:33;;;;;;;4.88;1.90;;;;;21.40;94748.00;;;;7389746;19;20120;-79
2023/09/25 10:59:10;;;;;;;2.40;1.70;;;;;21.60;94753.00;;;;7389919;19;20139;-78
2023/09/25 11:01:39;;;;;;;2.30;1.80;;;;;21.50;94755.00;;;;7389799;19;20525;-79
2023/09/25 11:04:19;;;;;;;3.55;1.90;;;;;21.50;94756.00;;;;7387472;19;20172;-79
2023/09/25 11:06:55;;;;;;;2.90;1.95;;;;;21.70;94759.00;;;;7387538;19;20156;-79
2023/09/25 11:09:29;;;;;;;2.15;1.50;;;;;21.60;94756.00;;;;7388254;19;20162;-76
2023/09/25 11:12:03;;;;;;;1.95;1.75;;;;;21.50;94764.00;;;;7389051;19;20172;-76
2023/09/25 11:14:38;;;;;;;4.13;2.10;;;;;21.50;94762.00;;;;7386575;19;20155;-78
2023/09/25 11:17:06;;;;;;;4.82;1.70;;;;;22.20;94749.00;;;;7390675;19;20136;-78
2023/09/25 11:19:45;;;;;;;1.80;1.60;;;;;23.00;94754.00;;;;7389477;19;20135;-79
2023/09/25 11:22:13;;;;;;;2.45;1.67;;;;;23.30;94751.00;;;;7388586;19;20129;-78
2023/09/25 11:24:59;;;;;;;2.47;1.50;;;;;23.90;94752.00;;;;7383294;19;20132;-76
2023/09/25 11:27:26;;;;;;;2.47;1.75;;;;;24.20;94743.00;;;;7387050;19;20137;-78
2023/09/25 11:30:13;;;;;;;2.47;1.90;;;;;23.80;94743.00;;;;7388155;19;20148;-77
2023/09/25 11:32:52;;;;;;;1.83;1.40;;;;;24.40;94740.00;;;;7388858;19;20157;-78
2023/09/25 11:35:27;;;;;;;2.28;1.60;;;;;24.50;94752.00;;;;7390281;19;20157;-78
2023/09/25 11:38:02;;;;;;;2.72;1.77;;;;;25.50;94754.00;;;;7391879;19;20140;-75
2023/09/25 11:40:31;;;;;;;2.63;1.75;;;;;24.90;94747.00;;;;7394947;19;20140;-75
2023/09/25 11:42:58;;;;;;;2.42;1.65;;;23.50;99.90;25.10;94738.00;;;;7391513;19;20741;-74
2023/09/25 11:45:32;;;;;;;3.55;1.92;;;23.70;99.90;25.50;94722.00;;;;7393670;19;20148;-75
2023/09/25 11:48:01;;;;;;;4.65;2.60;;;23.70;99.90;25.70;94719.00;;;;7391389;19;20137;-76
2023/09/25 11:50:35;;;;;;;2.60;1.50;;;23.70;99.90;25.80;94717.00;;;;7389578;19;20580;-74
2023/09/25 11:53:09;;;;;;;2.38;1.67;;;23.90;99.90;25.00;94723.00;;;;7387303;19;20467;-74
2023/09/25 11:55:43;;;;;;;5.38;1.70;;;24.00;99.90;25.90;94734.00;;;;7392191;19;20149;-76
2023/09/25 11:58:20;;;;;;;1.75;1.52;;;24.20;99.90;25.40;94720.00;;;;7392551;19;20133;-75
2023/09/25 12:00:48;;;;;;;7.38;1.98;;;24.10;99.90;24.80;94737.00;;;;7389937;19;20141;-75
2023/09/25 12:03:29;;;;;;;3.35;1.50;;;24.20;99.90;24.30;94750.00;;;;7389209;19;20231;-75
2023/09/25 12:06:03;;;;;;;2.45;1.83;;;24.50;99.90;23.60;94746.00;;;;7389708;19;20499;-74
2023/09/25 12:08:38;;;;;;;2.35;1.80;;;24.60;99.90;24.50;94747.00;;;;7392792;19;20611;-75
2023/09/25 12:11:06;;;;;;;2.85;1.92;;;24.80;99.90;24.30;94742.00;;;;7394303;19;20679;-74
2023/09/25 12:13:39;;;;;;;2.30;1.80;;;24.90;99.90;24.60;94721.00;;;;7391388;19;20332;-73
2023/09/25 12:16:18;;;;;;;2.72;1.50;;;25.10;99.90;25.10;94750.00;;;;7392666;19;20167;-74
2023/09/25 12:18:56;;;;;;;2.78;1.70;;;25.10;99.90;25.00;94744.00;;;;7388681;19;20196;-74
2023/09/25 12:21:30;;;;;;;3.25;1.75;;;25.80;99.90;25.00;94732.00;;;;7390235;19;20155;-74
2023/09/25 12:24:05;;;;;;;1.85;1.67;;;26.10;99.90;25.00;94743.00;;;;7391493;19;20138;-74
2023/09/25 12:26:46;;;;;;;3.00;1.80;;;26.30;99.90;25.60;94715.00;;;;7396999;19;20713;-74
2023/09/25 12:29:13;;;;;;;2.42;1.90;;;26.80;99.90;26.30;94743.00;;;;7399809;19;20153;-74
2023/09/25 12:31:47;;;;;;;2.72;1.60;;;27.10;99.90;26.60;94744.00;;;;7398480;19;20580;-74
2023/09/25 12:34:21;;;;;;;2.50;1.67;;;27.30;99.90;26.60;94734.00;;;;7395718;19;20158;-76
2023/09/25 12:36:48;;;;;;;2.45;1.92;;;27.30;99.90;26.20;94749.00;;;;7398610;19;20140;-75
2023/09/25 12:39:23;;;;;;;2.53;1.60;;;27.50;99.90;27.20;94734.00;;;;7398361;19;20136;-75
2023/09/25 12:41:51;;;;;;;2.60;1.80;;;;;27.80;94749.00;;;;7398171;19;20172;-75
2023/09/25 12:44:48;;;;;;;2.13;1.52;;;;;28.30;94739.00;;;;7399032;19;20483;-75
2023/09/25 12:47:26;;;;;;;2.50;1.70;;;;;28.30;94744.00;;;;7398197;19;20148;-75
2023/09/25 12:50:01;;;;;;;4.05;2.05;;;;;28.30;94749.00;;;;7399090;19;20468;-77